createdAt,value
2017-06-30T00:00:48.114Z,58.60
2017-06-30T00:03:15.210Z,58.40
2017-06-30T00:05:41.507Z,58.40
2017-06-30T00:08:07.808Z,58.40
2017-06-30T00:10:34.153Z,58.70
2017-06-30T00:13:01.198Z,58.40
2017-06-30T00:15:28.248Z,58.60
2017-06-30T00:17:55.368Z,58.80
2017-06-30T00:20:21.672Z,58.80
2017-06-30T00:22:47.984Z,58.60
2017-06-30T00:25:14.387Z,58.60
2017-06-30T00:27:41.508Z,58.80
2017-06-30T00:30:08.570Z,59.00
2017-06-30T00:32:41.937Z,58.90
2017-06-30T00:35:08.257Z,59.10
2017-06-30T00:37:34.543Z,59.00
2017-06-30T00:40:01.659Z,58.80
2017-06-30T00:42:35.122Z,58.80
2017-06-30T00:45:01.476Z,58.80
2017-06-30T00:47:27.776Z,59.00
2017-06-30T00:49:54.076Z,59.30
2017-06-30T00:52:21.184Z,59.20
2017-06-30T00:54:47.500Z,59.00
2017-06-30T00:57:13.805Z,59.20
2017-06-30T00:59:40.167Z,59.30
2017-06-30T01:02:06.468Z,59.60
2017-06-30T01:04:39.868Z,59.50
2017-06-30T01:07:06.168Z,59.40
2017-06-30T01:09:32.528Z,59.70
2017-06-30T01:11:58.870Z,59.40
2017-06-30T01:14:25.175Z,59.90
2017-06-30T01:16:52.218Z,60.10
2017-06-30T01:19:19.316Z,60.10
2017-06-30T01:21:45.624Z,60.10
2017-06-30T01:24:11.973Z,59.90
2017-06-30T01:26:38.275Z,59.40
2017-06-30T01:29:04.568Z,59.90
2017-06-30T01:31:30.909Z,59.80
2017-06-30T01:33:57.223Z,60.10
2017-06-30T01:36:23.586Z,60.00
2017-06-30T01:38:50.676Z,60.60
2017-06-30T01:41:17.050Z,60.60
2017-06-30T01:43:43.370Z,60.40
2017-06-30T01:46:09.716Z,60.90
2017-06-30T01:48:36.786Z,60.80
2017-06-30T01:51:03.184Z,60.80
2017-06-30T01:53:29.479Z,61.00
2017-06-30T01:55:55.819Z,60.30
2017-06-30T01:58:22.201Z,61.00
2017-06-30T02:00:49.240Z,60.60
2017-06-30T02:03:16.299Z,60.40
2017-06-30T02:05:43.356Z,60.60
2017-06-30T02:08:09.675Z,60.60
2017-06-30T02:10:36.729Z,60.20
2017-06-30T02:13:03.073Z,60.10
2017-06-30T02:15:29.380Z,60.20
2017-06-30T02:17:56.435Z,60.90
2017-06-30T02:20:22.763Z,60.90
2017-06-30T02:22:49.859Z,60.60
2017-06-30T02:25:16.160Z,60.60
2017-06-30T02:27:42.479Z,61.20
2017-06-30T02:30:08.788Z,61.60
2017-06-30T02:32:35.087Z,61.90
2017-06-30T02:35:01.421Z,61.60
2017-06-30T02:37:27.729Z,61.00
2017-06-30T02:39:54.060Z,61.70
2017-06-30T02:42:20.394Z,61.40
2017-06-30T02:44:46.720Z,61.80
2017-06-30T02:47:13.035Z,61.00
2017-06-30T02:49:39.353Z,61.10
2017-06-30T02:52:05.649Z,60.50
2017-06-30T02:54:31.961Z,60.60
2017-06-30T02:56:58.269Z,60.80
2017-06-30T02:59:24.590Z,60.40
2017-06-30T03:01:50.882Z,60.60
2017-06-30T03:04:17.948Z,61.00
2017-06-30T03:06:44.293Z,61.00
2017-06-30T03:09:10.611Z,60.80
2017-06-30T03:11:36.954Z,60.60
2017-06-30T03:14:03.249Z,60.60
2017-06-30T03:16:30.319Z,60.40
2017-06-30T03:18:56.624Z,60.90
2017-06-30T03:21:22.947Z,60.60
2017-06-30T03:23:49.271Z,60.30
2017-06-30T03:26:15.625Z,60.50
2017-06-30T03:28:42.679Z,61.70
2017-06-30T03:31:09.723Z,60.80
2017-06-30T03:33:36.768Z,60.60
2017-06-30T03:36:03.819Z,60.70
2017-06-30T03:38:30.903Z,60.50
2017-06-30T03:43:30.245Z,60.60
2017-06-30T03:45:56.539Z,60.50
2017-06-30T03:48:22.878Z,60.60
2017-06-30T03:50:49.193Z,61.20
2017-06-30T03:53:15.517Z,61.30
2017-06-30T03:55:41.817Z,60.90
2017-06-30T03:58:08.140Z,61.10
2017-06-30T04:00:34.446Z,61.60
2017-06-30T04:03:00.747Z,61.10
2017-06-30T04:05:27.065Z,60.90
2017-06-30T04:07:54.108Z,61.00
2017-06-30T04:10:21.179Z,60.60
2017-06-30T04:12:47.504Z,60.60
2017-06-30T04:15:13.840Z,60.80
2017-06-30T04:17:40.143Z,60.10
2017-06-30T04:20:07.223Z,60.40
2017-06-30T04:22:33.528Z,60.40
2017-06-30T04:25:00.582Z,60.80
2017-06-30T04:27:27.651Z,61.60
2017-06-30T04:29:53.955Z,61.40
2017-06-30T04:32:21.106Z,60.30
2017-06-30T04:34:48.163Z,60.30
2017-06-30T04:37:14.462Z,60.30
2017-06-30T04:39:40.823Z,60.80
2017-06-30T04:42:07.133Z,60.50
2017-06-30T04:44:49.150Z,61.20
2017-06-30T04:47:15.451Z,60.60
2017-06-30T04:49:41.752Z,60.50
2017-06-30T04:52:08.135Z,60.90
2017-06-30T04:54:35.184Z,61.20
2017-06-30T04:57:02.231Z,61.40
2017-06-30T04:59:29.408Z,60.90
2017-06-30T05:01:55.731Z,60.90
2017-06-30T05:04:22.040Z,61.10
2017-06-30T05:06:49.122Z,60.60
2017-06-30T05:09:15.418Z,60.50
2017-06-30T05:11:41.722Z,61.10
2017-06-30T05:14:08.070Z,61.20
2017-06-30T05:16:35.115Z,62.30
2017-06-30T05:19:02.174Z,60.70
2017-06-30T05:21:29.251Z,61.20
2017-06-30T05:23:55.646Z,61.20
2017-06-30T05:26:22.698Z,60.60
2017-06-30T05:28:49.746Z,61.10
2017-06-30T05:31:16.931Z,61.00
2017-06-30T05:33:43.235Z,61.00
2017-06-30T05:36:10.277Z,61.20
2017-06-30T05:38:37.364Z,61.30
2017-06-30T05:41:03.669Z,61.30
2017-06-30T05:43:30.033Z,60.40
2017-06-30T05:45:56.340Z,60.40
2017-06-30T05:48:22.659Z,60.50
2017-06-30T05:50:49.010Z,60.20
2017-06-30T05:53:15.336Z,60.00
2017-06-30T05:55:41.702Z,61.10
2017-06-30T05:58:08.218Z,60.20
2017-06-30T06:00:34.534Z,60.60
2017-06-30T06:03:00.961Z,59.50
2017-06-30T06:05:27.307Z,59.60
2017-06-30T06:07:53.618Z,59.40
2017-06-30T06:10:20.063Z,59.80
2017-06-30T06:12:46.369Z,59.30
2017-06-30T06:15:13.418Z,59.70
2017-06-30T06:17:40.501Z,59.00
2017-06-30T06:20:06.865Z,59.00
2017-06-30T06:22:33.179Z,59.50
2017-06-30T06:24:59.483Z,58.80
2017-06-30T06:27:25.854Z,58.50
2017-06-30T06:29:52.333Z,58.30
2017-06-30T06:32:18.640Z,58.50
2017-06-30T06:34:45.748Z,57.60
2017-06-30T06:37:12.079Z,57.60
2017-06-30T06:39:38.388Z,57.80
2017-06-30T06:42:04.768Z,57.60
2017-06-30T06:44:31.092Z,57.40
2017-06-30T06:46:57.462Z,56.90
2017-06-30T06:49:23.823Z,57.40
2017-06-30T06:51:50.130Z,57.30
2017-06-30T06:54:16.471Z,56.90
2017-06-30T06:59:18.814Z,56.30
2017-06-30T07:01:45.371Z,56.50
2017-06-30T07:04:12.588Z,55.70
2017-06-30T07:06:39.310Z,55.70
2017-06-30T07:09:06.018Z,55.00
2017-06-30T07:11:33.399Z,54.10
2017-06-30T07:13:59.903Z,53.10
2017-06-30T07:16:26.300Z,53.40
2017-06-30T07:18:52.797Z,53.10
2017-06-30T07:21:19.231Z,52.70
2017-06-30T07:23:45.669Z,51.70
2017-06-30T07:26:12.217Z,52.10
2017-06-30T07:28:38.606Z,52.10
2017-06-30T07:31:05.003Z,51.50
2017-06-30T07:33:31.601Z,50.20
2017-06-30T07:35:58.545Z,51.50
2017-06-30T07:38:25.205Z,51.70
2017-06-30T07:40:52.034Z,52.40
2017-06-30T07:43:18.572Z,51.40
2017-06-30T07:45:45.461Z,51.50
2017-06-30T07:48:12.013Z,51.50
2017-06-30T07:50:38.702Z,51.90
2017-06-30T07:53:05.264Z,51.40
2017-06-30T07:55:31.579Z,51.60
2017-06-30T07:57:57.879Z,51.90
2017-06-30T08:00:24.232Z,52.50
2017-06-30T08:02:50.542Z,50.80
2017-06-30T08:05:16.855Z,50.30
2017-06-30T08:10:16.281Z,50.80
2017-06-30T08:12:42.643Z,49.20
2017-06-30T08:15:08.960Z,50.10
2017-06-30T08:17:35.292Z,49.30
2017-06-30T08:20:01.650Z,50.40
2017-06-30T08:22:27.960Z,49.20
2017-06-30T08:24:54.267Z,48.70
2017-06-30T08:27:20.658Z,47.90
2017-06-30T08:29:46.975Z,48.20
2017-06-30T08:32:13.300Z,48.90
2017-06-30T08:34:39.666Z,48.10
2017-06-30T08:37:06.714Z,47.60
2017-06-30T08:39:33.761Z,48.50
2017-06-30T08:42:00.868Z,48.00
2017-06-30T08:44:27.176Z,48.00
2017-06-30T08:46:53.495Z,46.90
2017-06-30T08:49:19.856Z,46.70
2017-06-30T08:51:53.070Z,47.00
2017-06-30T08:54:19.442Z,47.90
2017-06-30T08:56:45.759Z,48.30
2017-06-30T08:59:12.802Z,46.70
2017-06-30T09:01:40.327Z,47.70
2017-06-30T09:04:06.653Z,47.80
2017-06-30T09:06:32.970Z,46.80
2017-06-30T09:08:59.331Z,46.80
2017-06-30T09:11:25.626Z,45.80
2017-06-30T09:13:51.936Z,46.30
2017-06-30T09:16:18.284Z,46.70
2017-06-30T09:18:44.617Z,46.60
2017-06-30T09:21:10.923Z,47.20
2017-06-30T09:23:37.291Z,45.70
2017-06-30T09:26:03.602Z,46.50
2017-06-30T09:28:29.918Z,45.70
2017-06-30T09:30:56.275Z,44.90
2017-06-30T09:33:22.649Z,44.60
2017-06-30T09:35:48.969Z,45.70
2017-06-30T09:38:15.341Z,45.00
2017-06-30T09:40:41.658Z,44.80
2017-06-30T09:43:08.700Z,47.10
2017-06-30T09:45:35.796Z,45.70
2017-06-30T09:48:02.116Z,45.70
2017-06-30T09:50:28.418Z,44.60
2017-06-30T09:52:55.702Z,42.60
2017-06-30T09:55:22.023Z,42.60
2017-06-30T09:57:48.444Z,44.60
2017-06-30T10:00:14.798Z,43.30
2017-06-30T10:02:41.334Z,43.80
2017-06-30T10:05:07.873Z,42.70
2017-06-30T10:07:34.171Z,43.80
2017-06-30T10:10:00.622Z,42.20
2017-06-30T10:12:26.926Z,42.60
2017-06-30T10:14:53.986Z,40.80
2017-06-30T10:17:20.351Z,40.70
2017-06-30T10:19:46.654Z,42.30
2017-06-30T10:22:12.957Z,42.30
2017-06-30T10:24:40.044Z,42.40
2017-06-30T10:27:06.412Z,42.00
2017-06-30T10:29:32.727Z,42.00
2017-06-30T10:31:59.042Z,43.80
2017-06-30T10:34:25.406Z,42.70
2017-06-30T10:36:51.720Z,41.10
2017-06-30T10:39:18.033Z,40.70
2017-06-30T10:41:44.382Z,41.80
2017-06-30T10:44:10.691Z,43.20
2017-06-30T10:46:36.986Z,42.30
2017-06-30T10:49:03.340Z,41.50
2017-06-30T10:51:29.636Z,40.90
2017-06-30T10:53:56.132Z,41.00
2017-06-30T10:56:22.484Z,40.90
2017-06-30T10:58:48.829Z,41.30
2017-06-30T11:01:15.131Z,41.90
2017-06-30T11:03:41.485Z,41.30
2017-06-30T11:06:08.054Z,41.20
2017-06-30T11:08:34.416Z,42.40
2017-06-30T11:11:01.099Z,41.80
2017-06-30T11:13:27.409Z,40.10
2017-06-30T11:15:53.766Z,40.30
2017-06-30T11:18:20.818Z,42.00
2017-06-30T11:20:47.866Z,41.50
2017-06-30T11:23:14.965Z,43.00
2017-06-30T11:25:41.269Z,42.30
2017-06-30T11:28:07.637Z,41.00
2017-06-30T11:30:33.944Z,39.10
2017-06-30T11:33:00.243Z,39.70
2017-06-30T11:35:27.368Z,42.10
2017-06-30T11:37:53.704Z,42.10
2017-06-30T11:40:20.076Z,42.50
2017-06-30T11:42:46.515Z,41.90
2017-06-30T11:45:12.820Z,41.70
2017-06-30T11:47:39.905Z,41.30
2017-06-30T11:50:06.210Z,41.30
2017-06-30T11:52:32.550Z,40.20
2017-06-30T11:54:58.857Z,38.30
2017-06-30T11:57:25.964Z,38.60
2017-06-30T11:59:52.262Z,38.60
2017-06-30T12:02:18.560Z,40.40
2017-06-30T12:04:45.761Z,40.60
2017-06-30T12:07:12.065Z,40.00
2017-06-30T12:09:38.381Z,40.30
2017-06-30T12:12:05.484Z,41.30
2017-06-30T12:14:31.795Z,41.20
2017-06-30T12:16:58.110Z,41.30
2017-06-30T12:19:24.479Z,41.50
2017-06-30T12:21:50.799Z,40.70
2017-06-30T12:24:17.202Z,41.30
2017-06-30T12:26:43.693Z,42.50
2017-06-30T12:29:10.838Z,42.10
2017-06-30T12:31:37.139Z,42.00
2017-06-30T12:34:03.556Z,39.90
2017-06-30T12:36:29.905Z,38.90
2017-06-30T12:38:56.215Z,40.70
2017-06-30T12:41:22.584Z,43.00
2017-06-30T12:43:48.913Z,42.50
2017-06-30T12:46:15.212Z,39.70
2017-06-30T12:48:41.575Z,39.60
2017-06-30T12:51:07.886Z,40.70
2017-06-30T12:53:34.195Z,38.70
2017-06-30T12:56:00.547Z,38.20
2017-06-30T12:58:26.857Z,37.50
2017-06-30T13:00:53.236Z,39.10
2017-06-30T13:03:19.606Z,39.10
2017-06-30T13:05:46.659Z,38.60
2017-06-30T13:08:13.039Z,38.50
2017-06-30T13:10:39.447Z,38.10
2017-06-30T13:13:05.752Z,37.90
2017-06-30T13:15:32.061Z,36.40
2017-06-30T13:17:58.435Z,36.60
2017-06-30T13:20:24.740Z,38.10
2017-06-30T13:22:51.782Z,38.70
2017-06-30T13:25:18.880Z,36.70
2017-06-30T13:27:45.183Z,36.70
2017-06-30T13:30:11.491Z,36.10
2017-06-30T13:32:38.591Z,36.30
2017-06-30T13:35:04.895Z,36.30
2017-06-30T13:37:31.195Z,36.60
2017-06-30T13:39:58.278Z,38.10
2017-06-30T13:42:24.620Z,37.50
2017-06-30T13:44:50.948Z,37.90
2017-06-30T13:47:17.295Z,38.10
2017-06-30T13:49:43.601Z,38.10
2017-06-30T13:52:09.957Z,38.50
2017-06-30T13:54:36.260Z,38.00
2017-06-30T13:57:02.571Z,38.10
2017-06-30T13:59:29.656Z,36.50
2017-06-30T14:01:56.012Z,36.50
2017-06-30T14:04:22.316Z,37.10
2017-06-30T14:06:48.622Z,36.30
2017-06-30T14:09:15.016Z,36.30
2017-06-30T14:11:41.336Z,35.90
2017-06-30T14:14:07.673Z,37.30
2017-06-30T14:16:34.018Z,37.50
2017-06-30T14:19:00.320Z,38.10
2017-06-30T14:21:26.623Z,35.60
2017-06-30T14:23:52.980Z,37.20
2017-06-30T14:26:19.296Z,39.00
2017-06-30T14:28:45.599Z,38.80
2017-06-30T14:31:11.979Z,38.50
2017-06-30T14:33:38.281Z,37.70
2017-06-30T14:36:04.591Z,34.80
2017-06-30T14:38:30.975Z,36.90
2017-06-30T14:40:57.269Z,39.00
2017-06-30T14:43:23.685Z,37.00
2017-06-30T14:45:49.986Z,37.60
2017-06-30T14:48:16.285Z,36.00
2017-06-30T14:50:42.673Z,36.30
2017-06-30T14:53:08.974Z,36.30
2017-06-30T14:55:36.049Z,33.80
2017-06-30T14:58:02.403Z,33.80
2017-06-30T15:00:28.935Z,34.90
2017-06-30T15:02:55.270Z,35.90
2017-06-30T15:05:21.677Z,35.40
2017-06-30T15:07:47.979Z,35.40
2017-06-30T15:10:14.285Z,36.20
2017-06-30T15:12:40.640Z,35.10
2017-06-30T15:15:07.054Z,35.90
2017-06-30T15:17:33.355Z,36.20
2017-06-30T15:19:59.711Z,36.00
2017-06-30T15:22:26.020Z,36.00
2017-06-30T15:24:52.364Z,36.40
2017-06-30T15:27:18.724Z,35.50
2017-06-30T15:29:45.379Z,36.10
2017-06-30T15:32:12.786Z,35.60
2017-06-30T15:34:39.243Z,35.60
2017-06-30T15:37:05.663Z,36.00
2017-06-30T15:39:32.149Z,36.00
2017-06-30T15:41:58.653Z,35.30
2017-06-30T15:44:25.108Z,36.50
2017-06-30T15:46:52.275Z,36.20
2017-06-30T15:49:18.768Z,36.20
2017-06-30T15:51:45.363Z,35.90
2017-06-30T15:54:11.913Z,35.20
2017-06-30T15:56:38.273Z,35.50
2017-06-30T15:59:04.791Z,34.30
2017-06-30T16:01:31.156Z,35.10
2017-06-30T16:03:57.476Z,35.40
2017-06-30T16:06:23.775Z,35.50
2017-06-30T16:08:50.128Z,35.10
2017-06-30T16:11:16.439Z,34.60
2017-06-30T16:13:42.756Z,35.50
2017-06-30T16:16:09.099Z,35.90
2017-06-30T16:18:35.412Z,36.00
2017-06-30T16:21:01.739Z,35.60
2017-06-30T16:23:28.635Z,35.40
2017-06-30T16:25:54.954Z,35.90
2017-06-30T16:28:21.268Z,35.30
2017-06-30T16:30:47.792Z,35.60
2017-06-30T16:33:14.455Z,36.40
2017-06-30T16:35:41.201Z,36.60
2017-06-30T16:38:07.666Z,37.10
2017-06-30T16:40:35.400Z,37.90
2017-06-30T16:43:02.268Z,37.40
2017-06-30T16:45:28.636Z,38.10
2017-06-30T16:47:55.151Z,38.10
2017-06-30T16:50:22.200Z,39.20
2017-06-30T16:52:49.287Z,39.30
2017-06-30T16:55:15.960Z,39.30
2017-06-30T16:57:42.319Z,39.40
2017-06-30T17:00:09.388Z,40.80
2017-06-30T17:02:35.827Z,40.80
2017-06-30T17:05:02.191Z,40.70
2017-06-30T17:07:28.499Z,40.20
2017-06-30T17:09:54.815Z,40.40
2017-06-30T17:12:21.175Z,40.80
2017-06-30T17:14:47.495Z,41.90
2017-06-30T17:17:13.808Z,41.20
2017-06-30T17:19:40.163Z,40.50
2017-06-30T17:22:06.467Z,40.80
2017-06-30T17:24:32.784Z,41.30
2017-06-30T17:26:59.875Z,41.70
2017-06-30T17:29:26.184Z,41.70
2017-06-30T17:31:52.488Z,41.80
2017-06-30T17:34:19.583Z,41.50
2017-06-30T17:36:45.939Z,41.50
2017-06-30T17:39:12.254Z,42.20
2017-06-30T17:41:38.603Z,41.20
2017-06-30T17:44:04.907Z,38.60
2017-06-30T17:46:31.336Z,41.50
2017-06-30T17:48:57.652Z,46.10
2017-06-30T17:51:23.958Z,48.10
2017-06-30T17:53:51.057Z,50.80
2017-06-30T17:56:17.364Z,50.80
2017-06-30T17:58:43.717Z,51.60
2017-06-30T18:01:10.044Z,52.50
2017-06-30T18:03:36.364Z,53.40
2017-06-30T18:06:02.750Z,54.20
2017-06-30T18:08:29.106Z,55.00
2017-06-30T18:10:55.452Z,54.30
2017-06-30T18:13:21.813Z,55.00
2017-06-30T18:15:48.127Z,54.70
2017-06-30T18:18:14.983Z,55.00
2017-06-30T18:20:41.792Z,54.40
2017-06-30T18:23:08.091Z,54.60
2017-06-30T18:25:34.415Z,54.90
2017-06-30T18:28:00.811Z,54.60
2017-06-30T18:30:27.977Z,54.30
2017-06-30T18:32:54.291Z,54.10
2017-06-30T18:35:20.652Z,54.50
2017-06-30T18:37:46.965Z,54.50
2017-06-30T18:40:13.274Z,54.80
2017-06-30T18:42:39.641Z,54.00
2017-06-30T18:45:05.948Z,54.70
2017-06-30T18:47:32.258Z,54.30
2017-06-30T18:49:58.627Z,54.20
2017-06-30T18:52:24.936Z,54.40
2017-06-30T18:54:51.251Z,54.60
2017-06-30T18:57:17.591Z,54.50
2017-06-30T18:59:43.942Z,54.50
2017-06-30T19:02:10.307Z,54.40
2017-06-30T19:04:37.356Z,55.00
2017-06-30T19:07:03.672Z,54.80
2017-06-30T19:09:30.063Z,55.50
2017-06-30T19:11:56.424Z,55.80
2017-06-30T19:14:22.717Z,56.00
2017-06-30T19:16:49.030Z,56.40
2017-06-30T19:19:15.384Z,57.10
2017-06-30T19:21:41.680Z,56.60
2017-06-30T19:24:08.737Z,56.30
2017-06-30T19:26:35.101Z,56.30
2017-06-30T19:29:01.408Z,56.40
2017-06-30T19:31:27.813Z,56.50
2017-06-30T19:33:54.920Z,56.90
2017-06-30T19:36:21.220Z,56.90
2017-06-30T19:38:47.527Z,56.60
2017-06-30T19:41:14.631Z,57.50
2017-06-30T19:43:40.955Z,57.50
2017-06-30T19:46:07.284Z,57.30
2017-06-30T19:48:33.639Z,57.10
2017-06-30T19:50:59.989Z,56.90
2017-06-30T19:53:26.294Z,57.20
2017-06-30T19:55:52.657Z,57.60
2017-06-30T19:58:19.711Z,58.00
2017-06-30T20:00:46.773Z,58.00
2017-06-30T20:03:13.124Z,58.00
2017-06-30T20:05:39.435Z,57.90
2017-06-30T20:08:05.792Z,58.10
2017-06-30T20:10:32.213Z,58.10
2017-06-30T20:12:58.533Z,58.20
2017-06-30T20:15:24.936Z,58.30
2017-06-30T20:20:44.220Z,58.00
2017-06-30T20:23:10.512Z,58.10
2017-06-30T20:25:36.820Z,58.20
2017-06-30T20:28:03.196Z,57.90
2017-06-30T20:30:30.238Z,58.10
2017-06-30T20:32:57.288Z,58.40
2017-06-30T20:35:24.392Z,58.70
2017-06-30T20:37:50.714Z,58.70
2017-06-30T20:40:17.025Z,58.60
2017-06-30T20:42:43.374Z,58.70
2017-06-30T20:45:09.708Z,58.70
2017-06-30T20:47:36.014Z,58.50
2017-06-30T20:50:02.556Z,58.30
2017-06-30T20:52:28.851Z,58.30
2017-06-30T20:54:55.904Z,58.30
2017-06-30T20:57:23.093Z,57.40
2017-06-30T20:59:49.400Z,57.40
2017-06-30T21:02:15.704Z,57.60
2017-06-30T21:04:42.118Z,57.50
2017-06-30T21:07:08.420Z,57.50
2017-06-30T21:09:34.743Z,57.90
2017-06-30T21:12:01.096Z,57.90
2017-06-30T21:14:27.439Z,57.50
2017-06-30T21:16:53.755Z,57.20
2017-06-30T21:19:20.095Z,57.10
2017-06-30T21:21:46.402Z,57.10
2017-06-30T21:24:12.768Z,57.20
2017-06-30T21:26:39.068Z,57.50
2017-06-30T21:29:05.383Z,57.60
2017-06-30T21:31:31.724Z,57.90
2017-06-30T21:33:58.015Z,58.70
2017-06-30T21:36:25.095Z,58.10
2017-06-30T21:38:51.457Z,58.10
2017-06-30T21:41:20.150Z,58.40
2017-06-30T21:43:46.468Z,58.60
2017-06-30T21:46:12.884Z,58.80
2017-06-30T21:48:39.183Z,59.00
2017-06-30T21:51:06.265Z,59.20
2017-06-30T21:53:32.648Z,59.20
2017-06-30T21:55:59.702Z,59.20
2017-06-30T21:58:26.750Z,59.40
2017-06-30T22:00:53.863Z,59.30
2017-06-30T22:03:20.185Z,59.20
2017-06-30T22:05:46.671Z,59.20
2017-06-30T22:08:13.037Z,59.30
2017-06-30T22:10:39.366Z,59.30
2017-06-30T22:13:05.663Z,59.70
2017-06-30T22:15:32.133Z,59.70
2017-06-30T22:17:58.491Z,59.60
2017-06-30T22:20:24.810Z,59.30
2017-06-30T22:22:51.219Z,59.10
2017-06-30T22:25:17.551Z,58.90
2017-06-30T22:27:43.873Z,59.10
2017-06-30T22:30:10.232Z,59.20
2017-06-30T22:32:36.535Z,59.70
2017-06-30T22:35:02.845Z,59.80
2017-06-30T22:37:30.908Z,60.10
2017-06-30T22:39:57.215Z,60.80
2017-06-30T22:42:23.944Z,60.40
2017-06-30T22:44:50.763Z,60.20
2017-06-30T22:47:17.196Z,60.20
2017-06-30T22:49:43.763Z,60.10
2017-06-30T22:52:12.005Z,59.40
2017-06-30T22:54:38.414Z,59.60
2017-06-30T22:57:04.740Z,59.60
2017-06-30T22:59:31.095Z,59.80
2017-06-30T23:01:57.472Z,59.70
2017-06-30T23:04:23.785Z,59.70
2017-06-30T23:06:50.220Z,59.70
2017-06-30T23:09:17.017Z,59.70
2017-06-30T23:11:43.351Z,59.70
2017-06-30T23:14:09.715Z,59.70
2017-06-30T23:16:36.012Z,59.70
2017-06-30T23:19:04.373Z,59.90
2017-06-30T23:21:31.049Z,59.90
2017-06-30T23:23:57.384Z,59.80
2017-06-30T23:26:24.175Z,59.80
2017-06-30T23:28:51.299Z,59.30
2017-06-30T23:31:19.964Z,59.30
2017-06-30T23:33:46.344Z,59.30
2017-06-30T23:36:13.523Z,59.00
2017-06-30T23:38:39.920Z,59.00
2017-06-30T23:41:07.144Z,59.40
2017-06-30T23:43:33.517Z,58.80
2017-06-30T23:45:59.955Z,58.90
2017-06-30T23:48:26.335Z,58.80
2017-06-30T23:50:52.658Z,59.10
2017-06-30T23:53:19.141Z,58.90
2017-06-30T23:55:46.236Z,59.00
2017-06-30T23:58:12.621Z,58.90
